createdAt,value
2022-09-06T00:01:22.240Z,2.30
2022-09-06T00:03:52.422Z,2.40
2022-09-06T00:06:22.901Z,2.33
2022-09-06T00:08:52.888Z,2.10
2022-09-06T00:11:25.207Z,2.30
2022-09-06T00:13:54.919Z,2.08
2022-09-06T00:16:30.153Z,2.00
2022-09-06T00:19:00.694Z,1.95
2022-09-06T00:21:31.986Z,2.00
2022-09-06T00:24:01.630Z,2.17
2022-09-06T00:26:33.857Z,2.00
2022-09-06T00:29:03.500Z,2.20
2022-09-06T00:31:35.531Z,2.08
2022-09-06T00:34:05.365Z,2.00
2022-09-06T00:36:35.018Z,2.50
2022-09-06T00:39:04.892Z,2.20
2022-09-06T00:41:37.112Z,2.72
2022-09-06T00:44:06.860Z,2.90
2022-09-06T00:46:37.147Z,2.70
2022-09-06T00:49:10.242Z,2.80
2022-09-06T00:51:39.979Z,2.85
2022-09-06T00:54:11.093Z,2.80
2022-09-06T00:56:45.023Z,2.90
2022-09-06T00:59:14.801Z,2.90
2022-09-06T01:01:44.520Z,3.10
2022-09-06T01:04:14.482Z,2.97
2022-09-06T01:06:51.175Z,3.03
2022-09-06T01:09:33.558Z,3.22
2022-09-06T01:12:19.777Z,2.75
2022-09-06T01:15:00.043Z,3.30
2022-09-06T01:17:39.658Z,3.10
2022-09-06T01:20:32.503Z,3.42
2022-09-06T01:23:25.873Z,3.13
2022-09-06T01:26:05.308Z,3.17
2022-09-06T01:28:39.319Z,3.10
2022-09-06T01:31:18.883Z,3.20
2022-09-06T01:33:53.059Z,3.38
2022-09-06T01:36:25.849Z,3.25
2022-09-06T01:38:55.912Z,3.17
2022-09-06T01:41:25.516Z,3.58
2022-09-06T01:43:58.533Z,3.50
2022-09-06T01:46:32.526Z,3.25
2022-09-06T01:49:12.978Z,3.50
2022-09-06T01:51:55.290Z,3.70
2022-09-06T01:54:31.613Z,3.45
2022-09-06T01:57:13.121Z,3.50
2022-09-06T01:59:58.049Z,3.83
2022-09-06T02:02:31.079Z,3.67
2022-09-06T02:05:04.890Z,3.60
2022-09-06T02:10:10.333Z,3.60
2022-09-06T02:12:43.397Z,4.07
2022-09-06T02:15:18.833Z,4.32
2022-09-06T02:17:51.715Z,4.57
2022-09-06T02:20:25.567Z,4.43
2022-09-06T02:25:29.404Z,5.20
2022-09-06T02:27:59.163Z,4.87
2022-09-06T02:30:31.561Z,4.30
2022-09-06T02:33:03.675Z,4.68
2022-09-06T02:35:33.497Z,4.55
2022-09-06T02:38:03.153Z,5.00
2022-09-06T02:40:32.807Z,4.88
2022-09-06T02:43:02.429Z,4.43
2022-09-06T02:45:35.143Z,4.80
2022-09-06T02:48:05.260Z,5.10
2022-09-06T02:50:34.872Z,5.80
2022-09-06T02:53:06.156Z,5.13
2022-09-06T02:55:36.107Z,4.43
2022-09-06T02:58:06.645Z,4.68
2022-09-06T03:00:39.270Z,4.47
2022-09-06T03:03:09.074Z,5.00
2022-09-06T03:05:38.767Z,4.90
2022-09-06T03:08:08.541Z,4.85
2022-09-06T03:10:38.142Z,5.63
2022-09-06T03:13:07.816Z,5.20
2022-09-06T03:15:40.025Z,4.60
2022-09-06T03:18:09.662Z,4.75
2022-09-06T03:20:39.330Z,4.35
2022-09-06T03:23:09.587Z,4.30
2022-09-06T03:25:39.299Z,4.40
2022-09-06T03:28:08.930Z,4.68
2022-09-06T03:30:41.696Z,4.70
2022-09-06T03:33:11.384Z,4.65
2022-09-06T03:35:41.898Z,4.32
2022-09-06T03:38:11.570Z,4.78
2022-09-06T03:40:41.216Z,4.68
2022-09-06T03:43:10.889Z,4.68
2022-09-06T03:45:43.224Z,4.95
2022-09-06T03:48:12.907Z,5.05
2022-09-06T03:50:47.145Z,4.50
2022-09-06T03:53:17.267Z,5.40
2022-09-06T03:55:47.632Z,5.15
2022-09-06T03:58:17.724Z,5.03
2022-09-06T04:00:50.135Z,5.00
2022-09-06T04:03:20.933Z,5.18
2022-09-06T04:05:50.546Z,5.32
2022-09-06T04:08:20.207Z,4.88
2022-09-06T04:10:52.638Z,4.95
2022-09-06T04:13:22.377Z,5.40
2022-09-06T04:15:55.205Z,5.03
2022-09-06T04:18:25.301Z,5.10
2022-09-06T04:20:56.555Z,5.28
2022-09-06T04:23:27.467Z,5.03
2022-09-06T04:25:59.502Z,5.35
2022-09-06T04:28:29.763Z,5.30
2022-09-06T04:31:05.208Z,5.07
2022-09-06T04:33:36.407Z,5.15
2022-09-06T04:36:08.712Z,5.38
2022-09-06T04:38:39.937Z,5.50
2022-09-06T04:41:10.468Z,5.35
2022-09-06T04:43:40.082Z,5.38
2022-09-06T04:46:16.908Z,5.25
2022-09-06T04:48:46.568Z,5.07
2022-09-06T04:51:16.197Z,5.28
2022-09-06T04:53:45.819Z,5.88
2022-09-06T04:56:17.507Z,5.38
2022-09-06T04:58:48.440Z,5.25
2022-09-06T05:01:21.040Z,5.60
2022-09-06T05:03:53.979Z,5.68
2022-09-06T05:06:27.295Z,5.47
2022-09-06T05:08:57.035Z,5.43
2022-09-06T05:11:27.499Z,6.10
2022-09-06T05:13:57.124Z,5.50
2022-09-06T05:16:29.429Z,5.10
2022-09-06T05:18:59.124Z,5.53
2022-09-06T05:21:28.731Z,5.55
2022-09-06T05:23:58.893Z,5.72
2022-09-06T05:26:28.594Z,6.22
2022-09-06T05:28:58.196Z,5.18
2022-09-06T05:31:32.248Z,5.93
2022-09-06T05:34:02.628Z,5.43
2022-09-06T05:36:33.435Z,5.38
2022-09-06T05:39:03.175Z,4.82
2022-09-06T05:41:33.827Z,5.22
2022-09-06T05:44:03.832Z,4.38
2022-09-06T05:46:36.075Z,4.80
2022-09-06T05:49:08.026Z,4.50
2022-09-06T05:51:37.642Z,4.50
2022-09-06T05:54:07.871Z,5.25
2022-09-06T05:56:37.492Z,4.90
2022-09-06T05:59:07.121Z,4.55
2022-09-06T06:01:39.360Z,4.30
2022-09-06T06:04:09.087Z,5.57
2022-09-06T06:06:38.707Z,4.25
2022-09-06T06:09:08.446Z,4.53
2022-09-06T06:11:38.094Z,4.10
2022-09-06T06:14:07.964Z,4.25
2022-09-06T06:16:40.280Z,4.68
2022-09-06T06:19:09.949Z,4.30
2022-09-06T06:21:40.036Z,3.80
2022-09-06T06:24:10.122Z,4.00
2022-09-06T06:26:40.537Z,3.90
2022-09-06T06:29:10.621Z,3.90
2022-09-06T06:31:43.150Z,3.35
2022-09-06T06:34:13.311Z,4.03
2022-09-06T06:36:44.372Z,3.80
2022-09-06T06:39:14.066Z,3.50
2022-09-06T06:41:43.711Z,3.50
2022-09-06T06:44:48.798Z,3.40
2022-09-06T06:47:21.022Z,3.30
2022-09-06T06:49:50.829Z,3.45
2022-09-06T06:52:21.497Z,3.25
2022-09-06T06:54:51.644Z,3.28
2022-09-06T06:57:21.279Z,3.28
2022-09-06T06:59:50.933Z,3.00
2022-09-06T07:02:23.202Z,2.80
2022-09-06T07:04:52.846Z,3.03
2022-09-06T07:12:48.903Z,2.50
2022-09-06T07:15:18.663Z,2.28
2022-09-06T07:17:50.892Z,2.20
2022-09-06T07:20:20.525Z,2.22
2022-09-06T07:22:50.242Z,2.33
2022-09-06T07:25:21.526Z,2.10
2022-09-06T07:27:51.432Z,1.80
2022-09-06T07:30:21.625Z,2.10
2022-09-06T07:32:53.985Z,2.00
2022-09-06T07:35:25.048Z,1.85
2022-09-06T07:37:55.623Z,1.70
2022-09-06T07:40:25.455Z,1.90
2022-09-06T07:42:55.105Z,1.60
2022-09-06T07:45:24.763Z,1.88
2022-09-06T07:48:00.971Z,1.65
2022-09-06T07:50:47.726Z,1.98
2022-09-06T07:53:26.235Z,1.55
2022-09-06T07:56:00.857Z,1.65
2022-09-06T07:58:31.490Z,1.67
2022-09-06T08:01:30.186Z,1.55
2022-09-06T08:04:03.904Z,1.48
2022-09-06T08:09:25.214Z,1.85
2022-09-06T08:11:55.420Z,1.67
2022-09-06T08:14:27.336Z,1.40
2022-09-06T08:16:57.001Z,1.58
2022-09-06T08:19:29.335Z,1.35
2022-09-06T08:21:59.017Z,1.30
2022-09-06T08:24:29.082Z,1.50
2022-09-06T08:26:58.820Z,1.20
2022-09-06T08:29:28.632Z,1.33
2022-09-06T08:31:58.441Z,1.33
2022-09-06T08:34:30.777Z,1.50
2022-09-06T08:37:00.513Z,1.30
2022-09-06T08:39:30.301Z,1.60
2022-09-06T08:42:03.810Z,1.73
2022-09-06T08:47:26.962Z,1.30
2022-09-06T08:50:04.506Z,1.27
2022-09-06T08:53:15.721Z,1.20
2022-09-06T08:55:46.305Z,1.08
2022-09-06T08:58:26.158Z,1.05
2022-09-06T09:00:59.202Z,0.90
2022-09-06T09:03:34.359Z,1.35
2022-09-06T09:06:07.374Z,1.25
2022-09-06T09:08:43.111Z,1.00
2022-09-06T09:11:17.206Z,1.08
2022-09-06T09:13:55.902Z,0.90
2022-09-06T09:16:25.993Z,1.10
2022-09-06T09:18:58.209Z,0.80
2022-09-06T09:21:31.258Z,1.00
2022-09-06T09:24:02.397Z,1.20
2022-09-06T09:26:37.433Z,1.20
2022-09-06T09:29:08.825Z,1.10
2022-09-06T09:31:40.952Z,1.20
2022-09-06T09:39:39.779Z,1.00
2022-09-06T09:42:10.818Z,1.00
2022-09-06T09:44:45.702Z,0.77
2022-09-06T09:47:28.478Z,0.90
2022-09-06T09:49:58.154Z,0.80
2022-09-06T09:52:31.940Z,0.90
2022-09-06T09:55:05.101Z,0.90
2022-09-06T09:57:46.532Z,0.95
2022-09-06T10:00:17.136Z,1.50
2022-09-06T10:02:46.925Z,1.40
2022-09-06T10:05:23.580Z,0.88
2022-09-06T10:07:57.726Z,0.88
2022-09-06T10:10:28.843Z,1.00
2022-09-06T10:13:10.514Z,0.70
2022-09-06T10:15:41.758Z,1.10
2022-09-06T10:18:18.423Z,0.98
2022-09-06T10:20:52.792Z,1.30
2022-09-06T10:26:27.020Z,1.45
2022-09-06T10:29:01.790Z,1.00
2022-09-06T10:31:52.188Z,1.13
2022-09-06T10:34:51.808Z,1.10
2022-09-06T10:37:28.849Z,1.17
2022-09-06T10:40:06.542Z,1.13
2022-09-06T10:42:43.554Z,1.33
2022-09-06T10:45:27.118Z,1.42
2022-09-06T10:48:02.675Z,1.30
2022-09-06T10:50:40.101Z,1.60
2022-09-06T10:53:14.513Z,1.42
2022-09-06T10:55:48.720Z,1.33
2022-09-06T10:58:22.512Z,1.20
2022-09-06T11:00:54.276Z,1.40
2022-09-06T11:06:20.287Z,1.50
2022-09-06T11:08:57.869Z,1.67
2022-09-06T11:11:39.550Z,1.38
2022-09-06T11:14:13.468Z,1.60
2022-09-06T11:16:48.529Z,1.52
2022-09-06T11:19:22.701Z,1.90
2022-09-06T11:22:11.220Z,1.70
2022-09-06T11:24:53.364Z,2.42
2022-09-06T11:27:35.961Z,1.70
2022-09-06T11:30:08.010Z,1.83
2022-09-06T11:32:41.084Z,1.58
2022-09-06T11:35:13.997Z,1.90
2022-09-06T11:37:49.638Z,1.83
2022-09-06T11:40:27.183Z,1.90
2022-09-06T11:43:48.336Z,1.77
2022-09-06T11:46:56.571Z,1.75
2022-09-06T11:49:41.893Z,1.88
2022-09-06T11:52:44.342Z,1.70
2022-09-06T11:55:17.267Z,2.00
2022-09-06T11:57:50.488Z,1.73
2022-09-06T12:00:24.004Z,1.75
2022-09-06T12:02:54.360Z,2.05
2022-09-06T12:05:29.441Z,1.80
2022-09-06T12:08:28.213Z,1.90
2022-09-06T12:11:03.771Z,2.10
2022-09-06T12:13:44.693Z,1.98
2022-09-06T12:16:14.979Z,2.03
2022-09-06T12:19:00.915Z,2.22
2022-09-06T12:21:52.340Z,2.20
2022-09-06T12:24:52.099Z,2.08
2022-09-06T12:27:22.989Z,2.00
2022-09-06T12:29:58.895Z,2.13
2022-09-06T12:32:36.572Z,2.65
2022-09-06T12:38:02.192Z,2.35
2022-09-06T12:40:33.702Z,2.80
2022-09-06T12:43:05.682Z,2.50
2022-09-06T12:45:35.748Z,2.35
2022-09-06T12:48:11.554Z,3.05
2022-09-06T12:50:41.729Z,3.25
2022-09-06T12:53:26.655Z,3.13
2022-09-06T12:56:06.079Z,2.22
2022-09-06T12:58:36.102Z,2.58
2022-09-06T13:01:12.495Z,2.13
2022-09-06T13:03:45.354Z,2.30
2022-09-06T13:06:26.641Z,2.05
2022-09-06T13:09:01.039Z,2.40
2022-09-06T13:11:34.292Z,2.42
2022-09-06T13:16:37.641Z,1.80
2022-09-06T13:19:14.529Z,2.20
2022-09-06T13:21:46.058Z,2.50
2022-09-06T13:24:26.977Z,2.30
2022-09-06T13:26:57.248Z,2.20
2022-09-06T13:29:28.699Z,2.58
2022-09-06T13:31:59.812Z,2.10
2022-09-06T13:34:30.813Z,3.05
2022-09-06T13:37:04.754Z,1.90
2022-09-06T13:39:39.430Z,2.50
2022-09-06T13:42:10.694Z,1.90
2022-09-06T13:44:41.549Z,1.92
2022-09-06T13:47:11.207Z,1.50
2022-09-06T13:49:40.847Z,1.92
2022-09-06T13:52:10.913Z,2.28
2022-09-06T13:54:43.137Z,1.77
2022-09-06T13:57:13.207Z,1.70
2022-09-06T13:59:42.896Z,1.70
2022-09-06T14:02:16.010Z,1.50
2022-09-06T14:04:45.819Z,1.65
2022-09-06T14:07:15.445Z,2.50
2022-09-06T14:09:49.757Z,2.50
2022-09-06T14:12:19.463Z,1.50
2022-09-06T14:14:49.068Z,1.65
2022-09-06T14:17:19.050Z,1.60
2022-09-06T14:19:49.561Z,1.83
2022-09-06T14:22:19.239Z,1.92
2022-09-06T14:24:51.553Z,1.63
2022-09-06T14:27:21.245Z,1.77
2022-09-06T14:29:50.920Z,1.85
2022-09-06T14:32:22.690Z,1.95
2022-09-06T14:34:52.525Z,1.90
2022-09-06T14:37:22.174Z,1.58
2022-09-06T14:39:54.466Z,1.70
2022-09-06T14:42:24.726Z,2.10
2022-09-06T14:44:54.349Z,1.50
2022-09-06T14:47:24.032Z,1.60
2022-09-06T14:49:53.665Z,1.83
2022-09-06T14:52:23.336Z,1.58
2022-09-06T14:54:55.516Z,1.52
2022-09-06T14:57:25.158Z,1.27
2022-09-06T14:59:55.287Z,1.73
2022-09-06T15:02:26.365Z,1.27
2022-09-06T15:04:56.029Z,1.20
2022-09-06T15:07:25.831Z,1.48
2022-09-06T15:09:58.093Z,1.63
2022-09-06T15:12:28.015Z,1.60
2022-09-06T15:14:57.629Z,1.65
2022-09-06T15:17:27.253Z,2.00
2022-09-06T15:19:57.142Z,3.10
2022-09-06T15:22:26.909Z,2.05
2022-09-06T15:24:59.145Z,1.85
2022-09-06T15:27:29.530Z,1.60
2022-09-06T15:29:59.299Z,1.80
2022-09-06T15:32:29.388Z,1.35
2022-09-06T15:35:04.457Z,2.38
2022-09-06T15:37:34.480Z,1.70
2022-09-06T15:40:07.184Z,1.63
2022-09-06T15:42:36.942Z,1.40
2022-09-06T15:45:07.021Z,1.23
2022-09-06T15:47:37.385Z,1.58
2022-09-06T15:50:07.765Z,1.20
2022-09-06T15:52:37.424Z,1.27
2022-09-06T15:55:23.154Z,2.30
2022-09-06T15:57:52.813Z,1.60
2022-09-06T16:00:23.732Z,1.50
2022-09-06T16:02:53.471Z,1.58
2022-09-06T16:08:12.994Z,1.35
2022-09-06T16:10:45.249Z,1.23
2022-09-06T16:13:14.873Z,1.23
2022-09-06T16:15:44.497Z,1.60
2022-09-06T16:18:14.126Z,1.52
2022-09-06T16:20:43.971Z,1.58
2022-09-06T16:23:13.593Z,1.73
2022-09-06T16:25:50.220Z,1.90
2022-09-06T16:28:19.853Z,1.27
2022-09-06T16:30:49.497Z,1.30
2022-09-06T16:33:19.123Z,1.38
2022-09-06T16:35:48.787Z,1.30
2022-09-06T16:38:18.463Z,1.45
2022-09-06T16:40:50.768Z,1.55
2022-09-06T16:43:20.381Z,1.80
2022-09-06T16:45:58.670Z,2.10
2022-09-06T16:48:28.825Z,2.08
2022-09-06T16:50:58.517Z,1.48
2022-09-06T16:53:28.324Z,1.80
2022-09-06T16:56:00.504Z,1.40
2022-09-06T16:58:30.225Z,4.80
2022-09-06T17:01:00.844Z,1.70
2022-09-06T17:03:30.804Z,2.15
2022-09-06T17:06:00.439Z,2.08
2022-09-06T17:08:30.120Z,1.58
2022-09-06T17:11:03.504Z,1.48
2022-09-06T17:16:17.168Z,1.85
2022-09-06T17:18:48.625Z,1.73
2022-09-06T17:21:18.299Z,1.60
2022-09-06T17:23:48.022Z,1.60
2022-09-06T17:26:21.358Z,1.35
2022-09-06T17:31:25.672Z,1.80
2022-09-06T17:33:56.262Z,1.60
2022-09-06T17:36:27.789Z,1.50
2022-09-06T17:39:02.876Z,1.90
2022-09-06T17:41:37.113Z,2.08
2022-09-06T17:44:07.466Z,1.88
2022-09-06T17:46:41.147Z,10.75
2022-09-06T17:49:13.732Z,2.67
2022-09-06T17:51:43.927Z,2.33
2022-09-06T17:54:13.546Z,2.00
2022-09-06T17:56:46.255Z,1.92
2022-09-06T17:59:16.731Z,2.30
2022-09-06T18:01:47.319Z,2.17
2022-09-06T18:04:18.086Z,2.20
2022-09-06T18:06:48.234Z,2.50
2022-09-06T18:09:19.136Z,4.35
2022-09-06T18:11:51.424Z,2.55
2022-09-06T18:14:21.928Z,2.30
2022-09-06T18:16:54.262Z,2.63
2022-09-06T18:19:24.458Z,2.63
2022-09-06T18:21:54.269Z,2.30
2022-09-06T18:24:24.080Z,2.83
2022-09-06T18:26:56.344Z,2.33
2022-09-06T18:29:26.012Z,3.00
2022-09-06T18:31:57.368Z,2.28
2022-09-06T18:34:27.049Z,7.95
2022-09-06T18:36:57.132Z,8.13
2022-09-06T18:39:26.808Z,3.17
2022-09-06T18:42:10.579Z,3.03
2022-09-06T18:47:12.292Z,2.78
2022-09-06T18:49:44.336Z,2.60
2022-09-06T18:52:14.419Z,3.00
2022-09-06T18:54:44.871Z,3.00
2022-09-06T18:57:17.333Z,3.00
2022-09-06T18:59:47.359Z,3.00
2022-09-06T19:02:17.045Z,3.08
2022-09-06T19:04:46.731Z,2.80
2022-09-06T19:07:16.360Z,2.85
2022-09-06T19:09:45.982Z,2.90
2022-09-06T19:12:18.256Z,2.40
2022-09-06T19:14:47.906Z,2.65
2022-09-06T19:17:17.568Z,2.30
2022-09-06T19:19:47.202Z,2.55
2022-09-06T19:22:17.674Z,2.30
2022-09-06T19:24:47.285Z,2.60
2022-09-06T19:27:19.518Z,2.47
2022-09-06T19:29:49.701Z,2.50
2022-09-06T19:32:22.261Z,2.42
2022-09-06T19:34:52.043Z,2.35
2022-09-06T19:37:23.863Z,2.47
2022-09-06T19:39:54.043Z,2.25
2022-09-06T19:42:26.427Z,2.30
2022-09-06T19:44:56.196Z,2.20
2022-09-06T19:47:25.832Z,2.10
2022-09-06T19:49:55.430Z,2.05
2022-09-06T19:52:25.109Z,2.20
2022-09-06T19:54:55.105Z,2.55
2022-09-06T19:57:27.311Z,2.30
2022-09-06T19:59:56.987Z,2.47
2022-09-06T20:02:26.711Z,2.40
2022-09-06T20:04:56.497Z,2.47
2022-09-06T20:07:27.234Z,2.70
2022-09-06T20:09:57.020Z,2.70
2022-09-06T20:12:29.773Z,2.42
2022-09-06T20:14:59.442Z,2.38
2022-09-06T20:17:33.782Z,2.08
2022-09-06T20:20:04.369Z,2.13
2022-09-06T20:22:34.050Z,2.10
2022-09-06T20:25:03.663Z,2.03
2022-09-06T20:27:35.881Z,2.15
2022-09-06T20:30:05.642Z,2.40
2022-09-06T20:32:35.290Z,2.30
2022-09-06T20:35:04.933Z,2.08
2022-09-06T20:37:34.569Z,2.05
2022-09-06T20:40:05.478Z,2.13
2022-09-06T20:42:42.177Z,2.20
2022-09-06T20:45:12.929Z,2.15
2022-09-06T20:47:42.588Z,1.83
2022-09-06T20:50:13.048Z,2.40
2022-09-06T20:52:42.655Z,2.10
2022-09-06T20:55:12.759Z,2.45
2022-09-06T20:57:45.033Z,2.13
2022-09-06T21:00:15.913Z,2.30
2022-09-06T21:02:45.543Z,2.03
2022-09-06T21:05:15.180Z,2.30
2022-09-06T21:07:44.806Z,2.17
2022-09-06T21:10:14.445Z,1.95
2022-09-06T21:12:46.721Z,2.38
2022-09-06T21:15:16.411Z,2.45
2022-09-06T21:17:46.024Z,2.10
2022-09-06T21:20:15.758Z,2.10
2022-09-06T21:22:45.389Z,1.85
2022-09-06T21:25:15.050Z,1.98
2022-09-06T21:27:47.251Z,2.20
2022-09-06T21:30:17.498Z,1.73
2022-09-06T21:32:47.152Z,1.75
2022-09-06T21:35:16.803Z,1.70
2022-09-06T21:37:46.416Z,1.77
2022-09-06T21:40:16.379Z,2.00
2022-09-06T21:42:48.909Z,1.92
2022-09-06T21:45:18.616Z,2.25
2022-09-06T21:47:48.289Z,1.73
2022-09-06T21:50:18.225Z,1.90
2022-09-06T21:52:47.912Z,2.15
2022-09-06T21:55:17.637Z,2.10
2022-09-06T21:57:49.858Z,2.60
2022-09-06T22:00:19.888Z,2.08
2022-09-06T22:02:49.802Z,2.83
2022-09-06T22:05:19.436Z,2.25
2022-09-06T22:07:49.057Z,2.20
2022-09-06T22:10:18.844Z,2.25
2022-09-06T22:12:51.046Z,1.83
2022-09-06T22:15:22.238Z,2.38
2022-09-06T22:17:52.197Z,1.90
2022-09-06T22:20:22.882Z,2.10
2022-09-06T22:22:52.981Z,1.70
2022-09-06T22:25:22.868Z,1.70
2022-09-06T22:27:55.068Z,1.85
2022-09-06T22:30:25.923Z,2.08
2022-09-06T22:32:55.995Z,1.92
2022-09-06T22:35:25.652Z,1.70
2022-09-06T22:37:55.281Z,1.75
2022-09-06T22:40:24.909Z,2.00
2022-09-06T22:42:57.191Z,1.85
2022-09-06T22:45:26.961Z,1.60
2022-09-06T22:47:56.568Z,1.70
2022-09-06T22:50:26.208Z,1.55
2022-09-06T22:52:55.835Z,1.55
2022-09-06T22:55:25.464Z,1.88
2022-09-06T22:57:57.644Z,1.45
2022-09-06T23:00:27.689Z,1.70
2022-09-06T23:02:57.486Z,1.50
2022-09-06T23:05:27.110Z,1.90
2022-09-06T23:07:57.691Z,1.65
2022-09-06T23:10:27.546Z,1.80
2022-09-06T23:13:00.315Z,1.40
2022-09-06T23:15:29.917Z,1.77
2022-09-06T23:17:59.544Z,1.67
2022-09-06T23:20:29.286Z,1.73
2022-09-06T23:22:58.864Z,1.60
2022-09-06T23:25:28.449Z,4.80
2022-09-06T23:28:01.850Z,2.00
2022-09-06T23:30:31.928Z,2.63
2022-09-06T23:33:01.569Z,2.30
2022-09-06T23:35:31.131Z,1.75
2022-09-06T23:38:00.703Z,1.63
2022-09-06T23:40:30.282Z,1.77
2022-09-06T23:43:02.438Z,1.73
2022-09-06T23:45:32.026Z,2.33
2022-09-06T23:48:01.616Z,2.10
2022-09-06T23:50:31.268Z,1.67
2022-09-06T23:53:00.828Z,2.03
2022-09-06T23:55:30.429Z,2.15
2022-09-06T23:58:02.550Z,1.73
